createdAt,value
2017-12-23T00:01:29.259Z,47.60
2017-12-23T00:02:29.274Z,45.20
2017-12-23T00:04:22.218Z,49.90
2017-12-23T00:05:22.215Z,45.00
2017-12-23T00:07:15.152Z,45.20
2017-12-23T00:08:15.151Z,47.30
2017-12-23T00:10:08.097Z,47.70
2017-12-23T00:11:08.095Z,45.50
2017-12-23T00:13:01.018Z,45.00
2017-12-23T00:14:01.031Z,48.40
2017-12-23T00:15:53.981Z,45.70
2017-12-23T00:16:53.953Z,46.80
2017-12-23T00:18:46.885Z,48.20
2017-12-23T00:19:46.894Z,46.50
2017-12-23T00:21:39.844Z,49.70
2017-12-23T00:22:39.836Z,51.40
2017-12-23T00:24:32.754Z,46.80
2017-12-23T00:25:32.773Z,47.90
2017-12-23T00:27:25.720Z,49.20
2017-12-23T00:28:25.717Z,49.60
2017-12-23T00:30:18.643Z,48.90
2017-12-23T00:31:18.654Z,49.60
2017-12-23T00:33:11.597Z,49.50
2017-12-23T00:34:11.596Z,48.10
2017-12-23T00:36:04.541Z,44.40
2017-12-23T00:37:04.536Z,45.60
2017-12-23T00:38:57.459Z,44.50
2017-12-23T00:39:57.476Z,46.20
2017-12-23T00:41:50.424Z,41.80
2017-12-23T00:42:50.416Z,43.70
2017-12-23T00:44:43.353Z,42.60
2017-12-23T00:45:43.368Z,48.10
2017-12-23T00:47:36.325Z,44.50
2017-12-23T00:48:36.314Z,44.00
2017-12-23T00:50:29.243Z,44.60
2017-12-23T00:51:29.254Z,46.20
2017-12-23T00:53:22.200Z,50.20
2017-12-23T00:54:22.197Z,50.90
2017-12-23T00:56:15.116Z,48.20
2017-12-23T00:57:15.132Z,50.80
2017-12-23T00:59:08.084Z,52.80
2017-12-23T01:00:08.071Z,50.00
2017-12-23T01:02:01.001Z,46.80
2017-12-23T01:03:01.012Z,50.60
2017-12-23T01:04:53.964Z,52.00
2017-12-23T01:05:53.962Z,50.00
2017-12-23T01:07:46.880Z,48.30
2017-12-23T01:08:46.897Z,52.50
2017-12-23T01:10:39.841Z,53.70
2017-12-23T01:11:39.832Z,52.00
2017-12-23T01:13:32.793Z,58.60
2017-12-23T01:14:32.776Z,55.60
2017-12-23T01:16:25.700Z,53.10
2017-12-23T01:17:25.713Z,53.50
2017-12-23T01:19:18.659Z,53.70
2017-12-23T01:20:18.656Z,54.60
2017-12-23T01:22:11.585Z,56.20
2017-12-23T01:23:11.597Z,55.40
2017-12-23T01:25:04.542Z,56.60
2017-12-23T01:26:04.536Z,54.40
2017-12-23T01:27:57.463Z,55.40
2017-12-23T01:28:57.478Z,54.00
2017-12-23T01:30:50.414Z,55.10
2017-12-23T01:31:50.416Z,60.20
2017-12-23T01:33:43.349Z,56.60
2017-12-23T01:34:43.356Z,56.00
2017-12-23T01:36:36.301Z,55.50
2017-12-23T01:37:36.296Z,55.00
2017-12-23T01:39:29.224Z,55.80
2017-12-23T01:40:29.237Z,56.10
2017-12-23T01:42:22.182Z,56.30
2017-12-23T01:43:22.185Z,53.60
2017-12-23T01:45:15.136Z,51.40
2017-12-23T01:46:15.118Z,55.80
2017-12-23T01:48:08.044Z,49.60
2017-12-23T01:49:08.056Z,52.00
2017-12-23T01:51:00.993Z,56.90
2017-12-23T01:52:00.992Z,52.10
2017-12-23T01:53:53.917Z,52.50
2017-12-23T01:54:53.934Z,51.20
2017-12-23T01:56:46.883Z,50.00
2017-12-23T01:57:46.878Z,49.40
2017-12-23T01:59:39.801Z,51.60
2017-12-23T02:00:39.818Z,46.30
2017-12-23T02:02:32.760Z,47.70
2017-12-23T02:03:32.757Z,47.30
2017-12-23T02:05:25.682Z,47.00
2017-12-23T02:06:25.693Z,50.10
2017-12-23T02:08:18.636Z,46.80
2017-12-23T02:09:18.632Z,48.90
2017-12-23T02:11:11.551Z,47.10
2017-12-23T02:12:11.569Z,46.50
2017-12-23T02:14:05.010Z,46.00
2017-12-23T02:15:05.012Z,49.50
2017-12-23T02:16:57.931Z,46.40
2017-12-23T02:17:57.944Z,50.40
2017-12-23T02:19:50.892Z,48.60
2017-12-23T02:20:50.882Z,48.90
2017-12-23T02:22:43.826Z,52.20
2017-12-23T02:23:43.821Z,50.50
2017-12-23T02:25:36.747Z,50.00
2017-12-23T02:26:36.757Z,49.40
2017-12-23T02:28:29.707Z,49.00
2017-12-23T02:29:29.698Z,48.10
2017-12-23T02:31:22.623Z,47.40
2017-12-23T02:32:22.640Z,47.70
2017-12-23T02:34:15.583Z,50.40
2017-12-23T02:35:15.575Z,48.90
2017-12-23T02:37:08.503Z,49.50
2017-12-23T02:38:08.515Z,53.10
2017-12-23T02:40:01.460Z,49.50
2017-12-23T02:41:01.489Z,47.90
2017-12-23T02:42:54.377Z,55.30
2017-12-23T02:43:54.393Z,51.50
2017-12-23T02:45:47.335Z,53.40
2017-12-23T02:46:47.329Z,51.60
2017-12-23T02:48:40.293Z,52.50
2017-12-23T02:49:40.265Z,52.00
2017-12-23T02:51:33.190Z,55.00
2017-12-23T02:52:33.206Z,52.80
2017-12-23T02:54:26.151Z,53.50
2017-12-23T02:55:26.153Z,54.80
2017-12-23T02:57:19.067Z,58.40
2017-12-23T02:58:19.078Z,58.00
2017-12-23T03:00:12.021Z,62.60
2017-12-23T03:01:12.018Z,59.90
2017-12-23T03:03:04.939Z,67.50
2017-12-23T03:04:04.954Z,63.00
2017-12-23T03:05:57.898Z,63.40
2017-12-23T03:06:57.894Z,66.90
2017-12-23T03:08:50.815Z,66.40
2017-12-23T03:09:50.827Z,62.90
2017-12-23T03:11:43.773Z,63.50
2017-12-23T03:12:43.765Z,61.10
2017-12-23T03:14:36.697Z,62.40
2017-12-23T03:15:36.703Z,60.70
2017-12-23T03:17:29.645Z,61.00
2017-12-23T03:18:29.641Z,57.40
2017-12-23T03:20:22.564Z,55.10
2017-12-23T03:21:22.576Z,55.90
2017-12-23T03:23:15.513Z,52.20
2017-12-23T03:24:15.512Z,57.90
2017-12-23T03:26:08.454Z,56.30
2017-12-23T03:27:08.450Z,54.80
2017-12-23T03:29:01.374Z,50.90
2017-12-23T03:30:01.387Z,54.00
2017-12-23T03:31:54.335Z,48.60
2017-12-23T03:32:54.325Z,49.30
2017-12-23T03:34:47.246Z,43.60
2017-12-23T03:35:47.265Z,42.30
2017-12-23T03:37:40.204Z,39.80
2017-12-23T03:38:40.198Z,39.50
2017-12-23T03:40:33.118Z,37.60
2017-12-23T03:41:33.137Z,36.60
2017-12-23T03:43:26.080Z,38.80
2017-12-23T03:44:26.072Z,41.70
2017-12-23T03:46:18.996Z,40.00
2017-12-23T03:47:19.009Z,40.30
2017-12-23T03:49:11.950Z,38.90
2017-12-23T03:50:11.945Z,40.20
2017-12-23T03:52:04.870Z,44.90
2017-12-23T03:53:04.883Z,41.60
2017-12-23T03:54:57.827Z,45.10
2017-12-23T03:55:57.820Z,43.20
2017-12-23T03:57:50.779Z,46.40
2017-12-23T03:58:50.758Z,44.70
2017-12-23T04:00:43.686Z,47.90
2017-12-23T04:01:43.695Z,46.30
2017-12-23T04:03:36.637Z,48.80
2017-12-23T04:04:36.632Z,49.50
2017-12-23T04:06:29.560Z,50.70
2017-12-23T04:07:29.571Z,53.20
2017-12-23T04:09:22.513Z,54.30
2017-12-23T04:10:22.509Z,56.10
2017-12-23T04:12:15.433Z,57.20
2017-12-23T04:13:15.445Z,56.20
2017-12-23T04:15:08.389Z,58.10
2017-12-23T04:16:08.384Z,58.30
2017-12-23T04:18:01.308Z,57.30
2017-12-23T04:19:01.322Z,55.70
2017-12-23T04:20:54.263Z,59.40
2017-12-23T04:21:54.256Z,56.90
2017-12-23T04:23:47.182Z,63.50
2017-12-23T04:24:47.194Z,59.70
2017-12-23T04:26:40.135Z,62.20
2017-12-23T04:27:40.133Z,64.60
2017-12-23T04:29:33.085Z,65.60
2017-12-23T04:30:33.064Z,60.60
2017-12-23T04:32:25.989Z,64.40
2017-12-23T04:33:26.004Z,62.90
2017-12-23T04:35:18.981Z,66.50
2017-12-23T04:36:18.946Z,63.30
2017-12-23T04:38:11.868Z,66.00
2017-12-23T04:39:11.878Z,61.60
2017-12-23T04:41:04.818Z,64.10
2017-12-23T04:42:04.812Z,64.50
2017-12-23T04:43:57.732Z,63.80
2017-12-23T04:44:57.750Z,63.00
2017-12-23T04:46:50.691Z,69.20
2017-12-23T04:47:50.683Z,68.90
2017-12-23T04:49:43.609Z,66.70
2017-12-23T04:50:43.622Z,69.50
2017-12-23T04:52:36.561Z,68.90
2017-12-23T04:53:36.557Z,72.90
2017-12-23T04:55:29.479Z,74.30
2017-12-23T04:56:29.494Z,68.20
2017-12-23T04:58:22.440Z,73.10
2017-12-23T04:59:22.430Z,70.20
2017-12-23T05:01:15.382Z,68.60
2017-12-23T05:02:15.363Z,72.50
2017-12-23T05:04:08.287Z,70.80
2017-12-23T05:05:08.301Z,72.80
2017-12-23T05:07:01.243Z,69.80
2017-12-23T05:08:01.238Z,77.80
2017-12-23T05:09:54.164Z,75.90
2017-12-23T05:10:54.176Z,74.40
2017-12-23T05:12:47.125Z,74.20
2017-12-23T05:13:47.115Z,74.60
2017-12-23T05:15:40.040Z,71.30
2017-12-23T05:16:40.052Z,69.90
2017-12-23T05:18:32.997Z,69.20
2017-12-23T05:19:32.992Z,71.40
2017-12-23T05:21:25.909Z,72.40
2017-12-23T05:22:25.924Z,70.90
2017-12-23T05:24:18.868Z,68.80
2017-12-23T05:25:18.862Z,71.20
2017-12-23T05:27:11.790Z,71.60
2017-12-23T05:28:11.804Z,70.80
2017-12-23T05:30:04.742Z,68.00
2017-12-23T05:31:04.739Z,67.60
2017-12-23T05:32:57.660Z,66.60
2017-12-23T05:33:57.674Z,67.50
2017-12-23T05:35:51.113Z,65.50
2017-12-23T05:36:51.107Z,66.00
2017-12-23T05:38:44.056Z,69.80
2017-12-23T05:39:44.046Z,69.00
2017-12-23T05:41:36.965Z,71.90
2017-12-23T05:42:36.983Z,71.70
2017-12-23T05:44:29.923Z,73.10
2017-12-23T05:45:29.920Z,73.50
2017-12-23T05:47:22.841Z,69.30
2017-12-23T05:48:22.854Z,71.40
2017-12-23T05:50:15.797Z,73.40
2017-12-23T05:51:15.792Z,79.50
2017-12-23T05:53:08.716Z,78.50
2017-12-23T05:54:08.725Z,74.50
2017-12-23T05:56:01.672Z,75.40
2017-12-23T05:57:01.660Z,74.90
2017-12-23T05:58:54.589Z,77.10
2017-12-23T05:59:54.608Z,72.20
2017-12-23T06:01:47.546Z,71.90
2017-12-23T06:02:47.542Z,74.90
2017-12-23T06:04:40.467Z,73.00
2017-12-23T06:05:40.482Z,72.80
2017-12-23T06:07:33.442Z,76.60
2017-12-23T06:08:33.420Z,76.30
2017-12-23T06:10:26.341Z,78.30
2017-12-23T06:11:26.358Z,77.70
2017-12-23T06:13:19.301Z,80.50
2017-12-23T06:14:19.296Z,78.00
2017-12-23T06:16:12.240Z,78.40
2017-12-23T06:17:12.236Z,83.00
2017-12-23T06:19:05.160Z,82.30
2017-12-23T06:20:05.171Z,85.50
2017-12-23T06:21:58.115Z,83.20
2017-12-23T06:22:58.109Z,81.80
2017-12-23T06:24:51.036Z,87.00
2017-12-23T06:25:51.048Z,86.90
2017-12-23T06:27:43.992Z,94.10
2017-12-23T06:28:43.986Z,96.10
2017-12-23T06:30:36.912Z,90.30
2017-12-23T06:31:36.924Z,94.70
2017-12-23T06:33:29.868Z,89.70
2017-12-23T06:34:29.861Z,88.00
2017-12-23T06:36:22.787Z,84.30
2017-12-23T06:37:22.799Z,85.40
2017-12-23T06:39:15.747Z,83.30
2017-12-23T06:40:15.738Z,86.10
2017-12-23T06:42:08.665Z,83.20
2017-12-23T06:43:08.679Z,81.30
2017-12-23T06:45:01.623Z,78.90
2017-12-23T06:46:01.621Z,80.20
2017-12-23T06:47:54.543Z,75.50
2017-12-23T06:48:54.557Z,75.10
2017-12-23T06:50:47.497Z,72.40
2017-12-23T06:51:47.494Z,72.30
2017-12-23T06:53:40.417Z,64.80
2017-12-23T06:54:40.432Z,68.40
2017-12-23T06:56:33.375Z,62.20
2017-12-23T06:57:33.367Z,63.30
2017-12-23T06:59:26.297Z,63.20
2017-12-23T07:00:26.311Z,65.70
2017-12-23T07:02:19.252Z,64.10
2017-12-23T07:03:19.249Z,62.30
2017-12-23T07:05:12.177Z,61.80
2017-12-23T07:06:12.189Z,63.10
2017-12-23T07:08:05.133Z,58.70
2017-12-23T07:09:05.127Z,62.80
2017-12-23T07:10:58.071Z,61.10
2017-12-23T07:11:58.060Z,58.10
2017-12-23T07:13:50.986Z,56.50
2017-12-23T07:14:51.000Z,57.20
2017-12-23T07:16:43.942Z,54.10
2017-12-23T07:17:43.938Z,53.90
2017-12-23T07:19:36.861Z,53.90
2017-12-23T07:20:36.872Z,56.70
2017-12-23T07:22:29.831Z,49.90
2017-12-23T07:23:29.804Z,51.90
2017-12-23T07:25:22.738Z,57.30
2017-12-23T07:26:22.747Z,50.70
2017-12-23T07:28:15.689Z,50.20
2017-12-23T07:29:15.686Z,49.00
2017-12-23T07:31:08.614Z,50.00
2017-12-23T07:32:08.625Z,47.60
2017-12-23T07:34:01.568Z,49.20
2017-12-23T07:35:01.562Z,45.80
2017-12-23T07:36:54.487Z,47.90
2017-12-23T07:37:54.499Z,47.90
2017-12-23T07:39:47.440Z,47.30
2017-12-23T07:40:47.476Z,49.30
2017-12-23T07:42:40.360Z,50.00
2017-12-23T07:43:40.373Z,47.30
2017-12-23T07:45:33.318Z,51.30
2017-12-23T07:46:33.308Z,48.80
2017-12-23T07:48:26.255Z,48.20
2017-12-23T07:49:26.249Z,47.70
2017-12-23T07:51:19.174Z,44.80
2017-12-23T07:52:19.186Z,46.20
2017-12-23T07:54:12.137Z,46.00
2017-12-23T07:55:12.125Z,41.40
2017-12-23T07:57:05.050Z,41.50
2017-12-23T07:58:05.069Z,42.00
2017-12-23T07:59:58.004Z,43.00
2017-12-23T08:00:58.001Z,43.00
2017-12-23T08:02:50.924Z,43.20
2017-12-23T08:03:50.935Z,44.00
2017-12-23T08:05:43.886Z,39.30
2017-12-23T08:06:43.875Z,44.00
2017-12-23T08:08:36.807Z,38.80
2017-12-23T08:09:36.813Z,39.80
2017-12-23T08:11:29.759Z,43.30
2017-12-23T08:12:29.753Z,44.40
2017-12-23T08:14:22.673Z,41.70
2017-12-23T08:15:22.692Z,43.90
2017-12-23T08:17:15.634Z,44.00
2017-12-23T08:18:15.626Z,41.70
2017-12-23T08:20:08.569Z,42.50
2017-12-23T08:21:08.565Z,41.70
2017-12-23T08:23:01.507Z,45.00
2017-12-23T08:24:01.502Z,45.20
2017-12-23T08:25:54.459Z,42.30
2017-12-23T08:26:54.441Z,47.50
2017-12-23T08:28:47.362Z,44.80
2017-12-23T08:29:47.378Z,42.90
2017-12-23T08:31:40.317Z,43.10
2017-12-23T08:32:40.313Z,42.40
2017-12-23T08:34:33.235Z,39.30
2017-12-23T08:35:33.250Z,39.50
2017-12-23T08:37:26.192Z,37.60
2017-12-23T08:38:26.188Z,35.70
2017-12-23T08:40:19.113Z,35.30
2017-12-23T08:41:19.129Z,33.60
2017-12-23T08:43:12.069Z,32.90
2017-12-23T08:44:12.062Z,34.40
2017-12-23T08:46:04.986Z,35.90
2017-12-23T08:47:04.999Z,33.20
2017-12-23T08:48:57.943Z,32.10
2017-12-23T08:49:57.938Z,31.50
2017-12-23T08:51:50.861Z,28.20
2017-12-23T08:52:50.872Z,29.70
2017-12-23T08:54:43.821Z,28.30
2017-12-23T08:55:43.814Z,28.80
2017-12-23T08:57:36.740Z,27.40
2017-12-23T08:58:36.753Z,26.70
2017-12-23T09:00:29.695Z,28.40
2017-12-23T09:01:29.689Z,26.50
2017-12-23T09:03:22.632Z,29.10
2017-12-23T09:04:22.624Z,26.80
2017-12-23T09:06:16.061Z,27.10
2017-12-23T09:07:16.068Z,25.40
2017-12-23T09:09:09.008Z,30.30
2017-12-23T09:10:09.007Z,27.10
2017-12-23T09:12:01.934Z,25.20
2017-12-23T09:13:01.948Z,26.90
2017-12-23T09:14:54.892Z,27.70
2017-12-23T09:15:54.889Z,30.60
2017-12-23T09:17:47.808Z,27.60
2017-12-23T09:18:47.860Z,26.80
2017-12-23T09:20:40.763Z,27.00
2017-12-23T09:21:40.759Z,26.90
2017-12-23T09:23:33.700Z,28.30
2017-12-23T09:24:33.696Z,26.20
2017-12-23T09:26:26.641Z,24.70
2017-12-23T09:27:26.633Z,27.80
2017-12-23T09:29:19.558Z,24.80
2017-12-23T09:30:19.574Z,22.80
2017-12-23T09:32:12.515Z,24.90
2017-12-23T09:33:12.510Z,23.20
2017-12-23T09:35:05.466Z,20.70
2017-12-23T09:36:05.446Z,23.50
2017-12-23T09:37:58.367Z,20.60
2017-12-23T09:38:58.383Z,22.20
2017-12-23T09:40:51.326Z,22.50
2017-12-23T09:41:51.319Z,22.70
2017-12-23T09:43:44.249Z,22.00
2017-12-23T09:44:44.262Z,21.50
2017-12-23T09:46:37.202Z,22.30
2017-12-23T09:47:37.198Z,22.90
2017-12-23T09:49:30.121Z,21.00
2017-12-23T09:50:30.137Z,22.30
2017-12-23T09:52:23.078Z,24.30
2017-12-23T09:53:23.073Z,22.60
2017-12-23T09:55:15.995Z,20.40
2017-12-23T09:56:16.012Z,18.70
2017-12-23T09:58:08.954Z,17.60
2017-12-23T09:59:08.948Z,19.40
2017-12-23T10:01:01.873Z,17.30
2017-12-23T10:02:01.883Z,16.70
2017-12-23T10:03:54.830Z,16.60
2017-12-23T10:04:54.822Z,16.10
2017-12-23T10:06:47.782Z,17.50
2017-12-23T10:07:47.766Z,14.90
2017-12-23T10:09:40.687Z,16.10
2017-12-23T10:10:40.703Z,17.60
2017-12-23T10:12:33.653Z,15.20
2017-12-23T10:13:33.646Z,15.30
2017-12-23T10:15:26.570Z,14.80
2017-12-23T10:16:26.583Z,13.90
2017-12-23T10:18:19.526Z,14.20
2017-12-23T10:19:19.520Z,12.40
2017-12-23T10:21:12.451Z,13.70
2017-12-23T10:22:12.461Z,13.30
2017-12-23T10:24:05.403Z,12.90
2017-12-23T10:25:05.400Z,12.70
2017-12-23T10:26:58.325Z,11.30
2017-12-23T10:27:58.338Z,12.80
2017-12-23T10:29:51.284Z,12.70
2017-12-23T10:30:51.277Z,11.90
2017-12-23T10:32:44.237Z,11.90
2017-12-23T10:33:44.212Z,12.50
2017-12-23T10:35:37.134Z,11.20
2017-12-23T10:36:37.147Z,11.20
2017-12-23T10:38:30.588Z,12.90
2017-12-23T10:39:30.586Z,13.20
2017-12-23T10:41:23.511Z,12.00
2017-12-23T10:42:23.526Z,11.60
2017-12-23T10:44:16.464Z,10.60
2017-12-23T10:45:16.462Z,13.40
2017-12-23T10:47:09.400Z,12.40
2017-12-23T10:48:09.404Z,12.10
2017-12-23T10:50:02.345Z,14.30
2017-12-23T10:51:02.340Z,11.30
2017-12-23T10:52:55.262Z,11.20
2017-12-23T10:53:55.277Z,11.90
2017-12-23T10:55:48.221Z,12.30
2017-12-23T10:56:48.208Z,11.30
2017-12-23T10:58:41.158Z,11.80
2017-12-23T10:59:41.151Z,10.70
2017-12-23T11:01:34.074Z,12.00
2017-12-23T11:02:34.088Z,9.50
2017-12-23T11:04:27.029Z,11.40
2017-12-23T11:05:27.025Z,12.10
2017-12-23T11:07:19.993Z,12.50
2017-12-23T11:08:19.961Z,11.70
2017-12-23T11:10:12.910Z,11.00
2017-12-23T11:11:12.901Z,11.00
2017-12-23T11:13:05.822Z,13.40
2017-12-23T11:14:05.843Z,12.00
2017-12-23T11:15:58.786Z,13.50
2017-12-23T11:16:58.780Z,15.00
2017-12-23T11:18:51.708Z,13.00
2017-12-23T11:19:51.722Z,13.40
2017-12-23T11:21:44.661Z,14.50
2017-12-23T11:22:44.661Z,13.60
2017-12-23T11:24:37.584Z,14.50
2017-12-23T11:25:37.600Z,15.10
2017-12-23T11:27:30.541Z,16.80
2017-12-23T11:28:30.536Z,15.50
2017-12-23T11:30:23.481Z,15.80
2017-12-23T11:31:23.475Z,14.10
2017-12-23T11:33:16.398Z,16.50
2017-12-23T11:34:16.404Z,15.30
2017-12-23T11:36:09.358Z,16.00
2017-12-23T11:37:09.355Z,15.20
2017-12-23T11:39:02.279Z,14.30
2017-12-23T11:40:02.290Z,15.00
2017-12-23T11:41:55.768Z,12.20
2017-12-23T11:42:55.734Z,13.50
2017-12-23T11:44:48.649Z,11.50
2017-12-23T11:45:48.668Z,11.20
2017-12-23T11:47:42.117Z,11.20
2017-12-23T11:48:42.113Z,10.10
2017-12-23T11:50:35.047Z,9.90
2017-12-23T11:51:35.043Z,9.90
2017-12-23T11:53:28.486Z,10.40
2017-12-23T11:54:28.479Z,9.20
2017-12-23T11:56:21.407Z,8.90
2017-12-23T11:57:21.418Z,10.40
2017-12-23T11:59:14.360Z,10.10
2017-12-23T12:00:14.356Z,9.90
2017-12-23T12:02:07.313Z,10.60
2017-12-23T12:03:07.292Z,10.90
2017-12-23T12:05:00.218Z,11.20
2017-12-23T12:06:00.232Z,10.40
2017-12-23T12:07:53.181Z,10.70
2017-12-23T12:08:53.170Z,10.60
2017-12-23T12:10:46.093Z,9.50
2017-12-23T12:11:46.107Z,10.30
2017-12-23T12:13:39.055Z,8.60
2017-12-23T12:14:39.047Z,9.40
2017-12-23T12:16:31.964Z,9.20
2017-12-23T12:17:31.983Z,8.50
2017-12-23T12:19:25.424Z,9.10
2017-12-23T12:20:25.424Z,9.10
2017-12-23T12:22:18.352Z,10.40
2017-12-23T12:23:18.364Z,9.00
2017-12-23T12:25:11.313Z,8.00
2017-12-23T12:26:11.305Z,7.40
2017-12-23T12:28:04.225Z,7.00
2017-12-23T12:29:04.242Z,7.80
2017-12-23T12:30:57.181Z,6.50
2017-12-23T12:31:57.176Z,7.70
2017-12-23T12:33:50.102Z,6.30
2017-12-23T12:34:50.116Z,7.60
2017-12-23T12:36:43.063Z,6.50
2017-12-23T12:37:43.063Z,7.60
2017-12-23T12:39:36.009Z,6.10
2017-12-23T12:40:35.991Z,7.30
2017-12-23T12:42:28.918Z,6.80
2017-12-23T12:43:28.931Z,6.10
2017-12-23T12:45:21.872Z,6.60
2017-12-23T12:46:21.870Z,6.20
2017-12-23T12:48:14.790Z,6.40
2017-12-23T12:49:14.801Z,7.00
2017-12-23T12:51:07.748Z,6.00
2017-12-23T12:52:07.745Z,5.70
2017-12-23T12:54:01.164Z,6.60
2017-12-23T12:55:01.180Z,6.90
2017-12-23T12:56:54.122Z,9.20
2017-12-23T12:57:54.124Z,9.00
2017-12-23T12:59:47.039Z,8.60
2017-12-23T13:00:47.053Z,10.00
2017-12-23T13:02:40.004Z,11.00
2017-12-23T13:03:40.004Z,10.60
2017-12-23T13:05:32.922Z,13.00
2017-12-23T13:06:32.934Z,14.50
2017-12-23T13:08:25.877Z,13.40
2017-12-23T13:09:25.868Z,13.20
2017-12-23T13:11:18.798Z,14.10
2017-12-23T13:12:18.811Z,14.00
2017-12-23T13:14:11.761Z,16.00
2017-12-23T13:15:11.749Z,14.70
2017-12-23T13:17:04.678Z,16.20
2017-12-23T13:18:04.685Z,15.40
2017-12-23T13:19:57.628Z,16.20
2017-12-23T13:20:57.625Z,15.40
2017-12-23T13:22:50.549Z,15.40
2017-12-23T13:23:50.561Z,15.70
2017-12-23T13:25:43.505Z,16.30
2017-12-23T13:26:43.498Z,15.10
2017-12-23T13:28:36.460Z,15.80
2017-12-23T13:29:36.447Z,16.70
2017-12-23T13:31:29.361Z,15.20
2017-12-23T13:32:29.379Z,15.50
2017-12-23T13:34:22.321Z,16.50
2017-12-23T13:35:22.315Z,16.20
2017-12-23T13:37:15.241Z,17.80
2017-12-23T13:38:15.253Z,17.60
2017-12-23T13:40:08.198Z,17.30
2017-12-23T13:41:08.193Z,16.00
2017-12-23T13:43:01.120Z,17.00
2017-12-23T13:44:01.131Z,18.50
2017-12-23T13:45:54.074Z,15.80
2017-12-23T13:46:54.067Z,18.10
2017-12-23T13:48:46.985Z,18.20
2017-12-23T13:49:46.998Z,17.10
2017-12-23T13:51:39.947Z,16.60
2017-12-23T13:52:39.943Z,16.40
2017-12-23T13:54:32.868Z,18.00
2017-12-23T13:55:32.882Z,17.50
2017-12-23T13:57:25.831Z,18.60
2017-12-23T13:58:25.861Z,18.00
2017-12-23T14:00:18.747Z,19.60
2017-12-23T14:01:18.773Z,20.10
2017-12-23T14:03:11.704Z,20.40
2017-12-23T14:04:11.699Z,23.10
2017-12-23T14:06:04.617Z,22.70
2017-12-23T14:07:04.635Z,25.30
2017-12-23T14:08:57.571Z,21.30
2017-12-23T14:09:57.573Z,21.20
2017-12-23T14:11:50.498Z,24.10
2017-12-23T14:12:50.505Z,22.30
2017-12-23T14:14:43.454Z,22.30
2017-12-23T14:15:43.450Z,21.40
2017-12-23T14:17:36.399Z,23.40
2017-12-23T14:18:36.385Z,24.60
2017-12-23T14:20:29.308Z,25.50
2017-12-23T14:21:29.323Z,21.90
2017-12-23T14:23:22.318Z,20.50
2017-12-23T14:24:22.266Z,19.20
2017-12-23T14:26:15.190Z,19.10
2017-12-23T14:27:15.197Z,18.30
2017-12-23T14:29:08.147Z,19.50
2017-12-23T14:30:08.135Z,22.10
2017-12-23T14:32:01.068Z,16.10
2017-12-23T14:33:01.074Z,17.50
2017-12-23T14:34:54.019Z,16.70
2017-12-23T14:35:54.012Z,18.30
2017-12-23T14:37:46.940Z,17.60
2017-12-23T14:38:46.955Z,20.10
2017-12-23T14:40:39.901Z,17.70
2017-12-23T14:41:39.887Z,18.30
2017-12-23T14:43:32.813Z,15.90
2017-12-23T14:44:32.825Z,17.90
2017-12-23T14:46:25.766Z,15.60
2017-12-23T14:47:25.763Z,14.80
2017-12-23T14:49:18.682Z,16.00
2017-12-23T14:50:18.710Z,16.30
2017-12-23T14:52:11.643Z,16.00
2017-12-23T14:53:11.635Z,16.50
2017-12-23T14:55:04.571Z,15.30
2017-12-23T14:56:04.578Z,14.70
2017-12-23T14:57:57.520Z,16.70
2017-12-23T14:58:57.512Z,17.60
2017-12-23T15:00:50.468Z,15.40
2017-12-23T15:01:50.451Z,15.50
2017-12-23T15:03:43.375Z,14.60
2017-12-23T15:04:43.392Z,13.90
2017-12-23T15:06:36.327Z,14.40
2017-12-23T15:07:36.321Z,15.60
2017-12-23T15:09:29.246Z,13.90
2017-12-23T15:10:29.262Z,15.60
2017-12-23T15:12:22.206Z,12.90
2017-12-23T15:13:22.202Z,13.50
2017-12-23T15:15:15.131Z,13.00
2017-12-23T15:16:15.145Z,13.60
2017-12-23T15:18:08.087Z,13.00
2017-12-23T15:19:08.082Z,12.90
2017-12-23T15:21:01.008Z,13.20
2017-12-23T15:22:01.023Z,12.30
2017-12-23T15:23:53.965Z,12.70
2017-12-23T15:24:53.955Z,11.70
2017-12-23T15:26:46.878Z,12.00
2017-12-23T15:27:46.957Z,11.20
2017-12-23T15:29:39.834Z,12.00
2017-12-23T15:30:39.829Z,11.40
2017-12-23T15:32:32.752Z,11.40
2017-12-23T15:33:32.767Z,10.40
2017-12-23T15:35:25.705Z,10.80
2017-12-23T15:36:25.704Z,10.30
2017-12-23T15:38:18.662Z,11.00
2017-12-23T15:39:18.641Z,10.70
2017-12-23T15:41:11.605Z,10.50
2017-12-23T15:42:11.581Z,10.30
2017-12-23T15:44:04.526Z,10.80
2017-12-23T15:45:04.520Z,10.00
2017-12-23T15:46:57.437Z,10.30
2017-12-23T15:47:57.453Z,9.90
2017-12-23T15:49:50.398Z,9.70
2017-12-23T15:50:50.391Z,11.30
2017-12-23T15:52:43.311Z,10.90
2017-12-23T15:53:43.330Z,12.10
2017-12-23T15:55:36.274Z,12.90
2017-12-23T15:56:36.264Z,13.80
2017-12-23T15:58:29.205Z,13.30
2017-12-23T15:59:29.215Z,13.30
2017-12-23T16:01:22.158Z,15.30
2017-12-23T16:02:22.154Z,14.20
2017-12-23T16:04:15.110Z,15.00
2017-12-23T16:05:15.092Z,13.40
2017-12-23T16:07:08.018Z,13.60
2017-12-23T16:08:08.036Z,13.80
2017-12-23T16:10:00.971Z,13.30
2017-12-23T16:11:00.966Z,12.70
2017-12-23T16:12:53.891Z,13.60
2017-12-23T16:13:53.905Z,13.40
2017-12-23T16:15:46.844Z,12.50
2017-12-23T16:16:46.839Z,12.00
2017-12-23T16:18:39.765Z,11.50
2017-12-23T16:19:39.779Z,12.50
2017-12-23T16:21:32.722Z,12.30
2017-12-23T16:22:32.717Z,12.20
2017-12-23T16:24:25.641Z,12.80
2017-12-23T16:25:25.654Z,12.90
2017-12-23T16:27:18.594Z,14.20
2017-12-23T16:28:18.589Z,13.40
2017-12-23T16:30:11.514Z,14.00
2017-12-23T16:31:11.529Z,13.10
2017-12-23T16:33:04.469Z,12.00
2017-12-23T16:34:04.465Z,12.00
2017-12-23T16:35:57.389Z,14.80
2017-12-23T16:36:57.402Z,12.50
2017-12-23T16:38:50.348Z,11.70
2017-12-23T16:39:50.348Z,13.30
2017-12-23T16:41:43.261Z,13.80
2017-12-23T16:42:43.279Z,11.50
2017-12-23T16:44:36.220Z,14.90
2017-12-23T16:45:36.216Z,12.80
2017-12-23T16:47:29.133Z,14.20
2017-12-23T16:48:29.150Z,12.70
2017-12-23T16:50:22.096Z,12.30
2017-12-23T16:51:22.091Z,13.90
2017-12-23T16:53:15.013Z,13.10
2017-12-23T16:54:15.025Z,12.90
2017-12-23T16:56:07.969Z,14.80
2017-12-23T16:57:07.964Z,12.70
2017-12-23T16:59:00.908Z,12.40
2017-12-23T17:00:00.903Z,13.20
2017-12-23T17:01:53.831Z,13.00
2017-12-23T17:02:53.840Z,14.40
2017-12-23T17:04:46.778Z,13.40
2017-12-23T17:05:46.779Z,13.10
2017-12-23T17:07:39.704Z,15.20
2017-12-23T17:08:39.717Z,13.80
2017-12-23T17:10:32.663Z,13.90
2017-12-23T17:11:32.657Z,14.20
2017-12-23T17:13:25.585Z,15.80
2017-12-23T17:14:25.595Z,14.90
2017-12-23T17:16:18.541Z,13.50
2017-12-23T17:17:18.536Z,14.10
2017-12-23T17:19:11.462Z,13.90
2017-12-23T17:20:11.476Z,14.60
2017-12-23T17:22:04.416Z,14.10
2017-12-23T17:23:04.411Z,14.80
2017-12-23T17:24:57.371Z,13.80
2017-12-23T17:25:57.351Z,13.80
2017-12-23T17:27:50.276Z,13.60
2017-12-23T17:28:50.290Z,14.10
2017-12-23T17:30:43.238Z,13.80
2017-12-23T17:31:43.228Z,14.20
2017-12-23T17:33:36.152Z,13.50
2017-12-23T17:34:36.167Z,13.30
2017-12-23T17:36:29.105Z,14.50
2017-12-23T17:37:29.104Z,14.10
2017-12-23T17:39:22.031Z,13.70
2017-12-23T17:40:22.039Z,13.80
2017-12-23T17:42:14.979Z,14.70
2017-12-23T17:43:14.980Z,13.40
2017-12-23T17:45:07.905Z,13.10
2017-12-23T17:46:07.914Z,13.50
2017-12-23T17:48:00.862Z,13.90
2017-12-23T17:49:00.856Z,14.80
2017-12-23T17:50:53.774Z,14.20
2017-12-23T17:51:53.793Z,17.40
2017-12-23T17:53:46.735Z,15.40
2017-12-23T17:54:46.727Z,15.60
2017-12-23T17:56:39.650Z,14.70
2017-12-23T17:57:39.662Z,15.10
2017-12-23T17:59:32.612Z,17.40
2017-12-23T18:00:32.600Z,14.60
2017-12-23T18:02:25.529Z,15.40
2017-12-23T18:03:25.538Z,14.80
2017-12-23T18:05:18.483Z,17.00
2017-12-23T18:06:18.479Z,15.90
2017-12-23T18:08:11.404Z,16.20
2017-12-23T18:09:11.418Z,15.90
2017-12-23T18:11:04.361Z,14.80
2017-12-23T18:12:04.354Z,15.70
2017-12-23T18:13:57.281Z,15.20
2017-12-23T18:14:57.292Z,15.10
2017-12-23T18:16:50.233Z,15.20
2017-12-23T18:17:50.229Z,15.40
2017-12-23T18:19:43.187Z,15.20
2017-12-23T18:20:43.223Z,16.30
2017-12-23T18:22:36.097Z,15.20
2017-12-23T18:23:36.107Z,15.50
2017-12-23T18:25:29.054Z,16.10
2017-12-23T18:26:29.048Z,16.20
2017-12-23T18:28:21.971Z,15.90
2017-12-23T18:29:21.984Z,16.00
2017-12-23T18:31:14.932Z,15.50
2017-12-23T18:32:14.925Z,15.00
2017-12-23T18:34:07.849Z,16.60
2017-12-23T18:35:07.863Z,15.30
2017-12-23T18:37:00.807Z,15.50